createdAt,value
2023-04-18T00:01:10.612Z,27.80
2023-04-18T00:03:04.581Z,25.20
2023-04-18T00:04:58.078Z,27.80
2023-04-18T00:06:53.655Z,27.60
2023-04-18T00:08:46.704Z,27.80
2023-04-18T00:10:39.649Z,27.70
2023-04-18T00:12:34.385Z,25.30
2023-04-18T00:14:30.274Z,26.00
2023-04-18T00:16:24.360Z,26.40
2023-04-18T00:18:17.229Z,26.90
2023-04-18T00:20:11.380Z,25.00
2023-04-18T00:22:04.308Z,27.20
2023-04-18T00:23:57.663Z,25.90
2023-04-18T00:25:50.629Z,29.70
2023-04-18T00:27:43.560Z,25.60
2023-04-18T00:29:36.511Z,30.00
2023-04-18T00:31:29.539Z,29.40
2023-04-18T00:33:23.837Z,28.10
2023-04-18T00:35:19.449Z,30.00
2023-04-18T00:37:12.921Z,28.80
2023-04-18T00:39:08.109Z,28.80
2023-04-18T00:41:01.057Z,28.70
2023-04-18T00:42:53.903Z,31.00
2023-04-18T00:44:46.748Z,31.60
2023-04-18T00:46:39.735Z,30.50
2023-04-18T00:48:32.950Z,31.10
2023-04-18T00:50:26.520Z,29.20
2023-04-18T00:52:20.179Z,30.50
2023-04-18T00:54:13.660Z,30.90
2023-04-18T00:56:07.713Z,29.90
2023-04-18T00:58:00.673Z,31.80
2023-04-18T00:59:53.719Z,29.60
2023-04-18T01:01:47.524Z,28.50
2023-04-18T01:03:41.116Z,31.50
2023-04-18T01:05:36.343Z,32.00
2023-04-18T01:07:33.501Z,30.90
2023-04-18T01:09:26.958Z,33.40
2023-04-18T01:11:20.513Z,31.90
2023-04-18T01:13:18.382Z,32.20
2023-04-18T01:15:12.050Z,32.60
2023-04-18T01:17:04.889Z,29.40
2023-04-18T01:18:57.695Z,29.60
2023-04-18T01:20:52.324Z,33.80
2023-04-18T01:22:46.295Z,33.70
2023-04-18T01:24:39.476Z,33.90
2023-04-18T01:26:32.293Z,31.70
2023-04-18T01:28:27.827Z,34.10
2023-04-18T01:30:22.588Z,35.00
2023-04-18T01:32:17.700Z,32.00
2023-04-18T01:34:11.733Z,32.20
2023-04-18T01:36:08.100Z,34.20
2023-04-18T01:38:01.346Z,35.20
2023-04-18T01:39:54.204Z,35.90
2023-04-18T01:41:47.144Z,32.60
2023-04-18T01:43:39.987Z,34.80
2023-04-18T01:45:32.933Z,35.20
2023-04-18T01:47:25.920Z,35.30
2023-04-18T01:49:18.836Z,35.40
2023-04-18T01:51:11.673Z,34.60
2023-04-18T01:53:04.931Z,37.00
2023-04-18T01:54:57.725Z,34.90
2023-04-18T01:56:50.827Z,36.70
2023-04-18T01:58:43.876Z,36.90
2023-04-18T02:00:38.516Z,35.40
2023-04-18T02:02:32.017Z,34.10
2023-04-18T02:04:25.285Z,35.20
2023-04-18T02:06:18.128Z,35.90
2023-04-18T02:08:11.898Z,33.70
2023-04-18T02:10:05.424Z,38.60
2023-04-18T02:11:59.666Z,34.60
2023-04-18T02:13:52.523Z,36.50
2023-04-18T02:15:48.911Z,37.80
2023-04-18T02:17:41.956Z,39.40
2023-04-18T02:19:35.117Z,38.10
2023-04-18T02:21:30.422Z,36.60
2023-04-18T02:23:23.367Z,39.70
2023-04-18T02:25:16.430Z,36.90
2023-04-18T02:27:11.219Z,39.20
2023-04-18T02:29:04.261Z,40.50
2023-04-18T02:30:57.312Z,39.40
2023-04-18T02:32:54.283Z,37.70
2023-04-18T02:34:49.863Z,36.20
2023-04-18T02:36:43.116Z,39.00
2023-04-18T02:38:36.585Z,40.70
2023-04-18T02:40:29.448Z,36.10
2023-04-18T02:42:25.457Z,38.60
2023-04-18T02:44:18.393Z,38.00
2023-04-18T02:46:11.769Z,47.60
2023-04-18T02:48:05.226Z,35.20
2023-04-18T02:49:59.395Z,38.90
2023-04-18T02:51:57.763Z,40.20
2023-04-18T02:53:55.011Z,42.50
2023-04-18T02:55:48.164Z,44.00
2023-04-18T02:57:41.519Z,40.50
2023-04-18T02:59:53.205Z,39.30
2023-04-18T03:02:12.614Z,42.50
2023-04-18T03:04:10.745Z,39.20
2023-04-18T03:06:07.898Z,48.30
2023-04-18T03:08:01.558Z,37.80
2023-04-18T03:09:54.615Z,40.00
2023-04-18T03:11:53.907Z,40.90
2023-04-18T03:13:50.139Z,38.30
2023-04-18T03:15:43.316Z,39.70
2023-04-18T03:17:36.733Z,55.80
2023-04-18T03:19:32.256Z,62.50
2023-04-18T03:21:29.192Z,43.00
2023-04-18T03:23:23.071Z,42.10
2023-04-18T03:25:16.023Z,41.90
2023-04-18T03:27:13.364Z,38.90
2023-04-18T03:29:06.624Z,40.80
2023-04-18T03:31:00.096Z,37.40
2023-04-18T03:32:53.783Z,39.60
2023-04-18T03:34:46.688Z,39.40
2023-04-18T03:36:40.256Z,40.80
2023-04-18T03:38:33.246Z,41.90
2023-04-18T03:40:26.356Z,46.90
2023-04-18T03:42:21.352Z,45.10
2023-04-18T03:44:15.297Z,42.90
2023-04-18T03:46:08.395Z,44.00
2023-04-18T03:48:01.920Z,42.60
2023-04-18T03:49:56.111Z,46.30
2023-04-18T03:51:49.279Z,42.90
2023-04-18T03:53:42.319Z,45.10
2023-04-18T03:55:35.471Z,46.10
2023-04-18T03:57:29.141Z,60.70
2023-04-18T03:59:22.082Z,60.00
2023-04-18T04:01:16.914Z,56.80
2023-04-18T04:03:10.861Z,48.70
2023-04-18T04:05:05.657Z,45.20
2023-04-18T04:07:00.534Z,40.50
2023-04-18T04:08:53.593Z,37.20
2023-04-18T04:10:49.716Z,40.40
2023-04-18T04:12:43.378Z,39.30
2023-04-18T04:14:37.101Z,42.80
2023-04-18T04:16:30.542Z,42.70
2023-04-18T04:18:31.257Z,42.80
2023-04-18T04:20:26.755Z,42.50
2023-04-18T04:22:33.001Z,50.50
2023-04-18T04:24:25.945Z,47.80
2023-04-18T04:26:18.894Z,46.00
2023-04-18T04:28:22.881Z,52.20
2023-04-18T04:30:23.570Z,46.50
2023-04-18T04:32:17.092Z,43.50
2023-04-18T04:34:10.037Z,42.60
2023-04-18T04:36:03.805Z,38.20
2023-04-18T04:37:57.265Z,49.00
2023-04-18T04:40:01.071Z,43.70
2023-04-18T04:42:13.720Z,43.20
2023-04-18T04:44:17.844Z,41.60
2023-04-18T04:46:13.925Z,43.20
2023-04-18T04:48:09.203Z,39.90
2023-04-18T04:50:04.335Z,44.40
2023-04-18T04:51:58.648Z,40.70
2023-04-18T04:53:52.350Z,38.10
2023-04-18T04:55:45.811Z,57.20
2023-04-18T04:57:38.806Z,42.40
2023-04-18T04:59:41.350Z,78.10
2023-04-18T05:01:34.316Z,48.10
2023-04-18T05:03:28.940Z,44.60
2023-04-18T05:05:23.354Z,41.10
2023-04-18T05:07:16.200Z,104.70
2023-04-18T05:09:09.046Z,51.00
2023-04-18T05:11:02.199Z,45.90
2023-04-18T05:12:55.150Z,42.80
2023-04-18T05:14:48.018Z,39.20
2023-04-18T05:16:41.719Z,48.20
2023-04-18T05:18:37.555Z,41.90
2023-04-18T05:20:30.746Z,37.10
2023-04-18T05:22:23.577Z,40.40
2023-04-18T05:24:16.659Z,38.90
2023-04-18T05:26:09.778Z,41.90
2023-04-18T05:28:04.975Z,41.60
2023-04-18T05:29:58.181Z,50.10
2023-04-18T05:31:51.287Z,56.50
2023-04-18T05:33:44.238Z,42.50
2023-04-18T05:35:37.340Z,43.90
2023-04-18T05:37:30.236Z,53.90
2023-04-18T05:39:23.109Z,44.90
2023-04-18T05:41:15.965Z,44.70
2023-04-18T05:43:08.874Z,43.00
2023-04-18T05:45:01.928Z,38.10
2023-04-18T05:46:54.878Z,48.10
2023-04-18T05:48:47.720Z,44.00
2023-04-18T05:50:40.883Z,51.20
2023-04-18T05:52:35.051Z,38.00
2023-04-18T05:54:28.001Z,42.10
2023-04-18T05:56:21.254Z,32.50
2023-04-18T05:58:14.314Z,38.70
2023-04-18T06:00:11.422Z,37.80
2023-04-18T06:02:13.698Z,45.40
2023-04-18T06:04:07.690Z,38.80
2023-04-18T06:06:00.947Z,42.30
2023-04-18T06:07:53.891Z,40.90
2023-04-18T06:09:46.737Z,38.50
2023-04-18T06:11:39.685Z,43.10
2023-04-18T06:13:32.735Z,42.70
2023-04-18T06:15:25.895Z,43.40
2023-04-18T06:17:19.286Z,56.00
2023-04-18T06:19:12.120Z,42.60
2023-04-18T06:21:05.418Z,36.60
2023-04-18T06:22:58.315Z,39.10
2023-04-18T06:24:51.245Z,41.20
2023-04-18T06:26:44.196Z,39.90
2023-04-18T06:28:37.043Z,39.50
2023-04-18T06:30:30.077Z,40.80
2023-04-18T06:32:23.198Z,39.90
2023-04-18T06:34:17.015Z,37.80
2023-04-18T06:36:10.574Z,38.00
2023-04-18T06:38:03.939Z,36.30
2023-04-18T06:39:59.147Z,34.50
2023-04-18T06:41:52.141Z,34.40
2023-04-18T06:44:03.318Z,38.40
2023-04-18T06:45:59.509Z,37.40
2023-04-18T06:47:53.247Z,38.50
2023-04-18T06:49:46.220Z,36.10
2023-04-18T06:51:39.048Z,39.80
2023-04-18T06:53:31.895Z,33.60
2023-04-18T06:55:24.738Z,35.60
2023-04-18T06:57:17.988Z,35.20
2023-04-18T06:59:10.928Z,35.00
2023-04-18T07:01:04.608Z,32.20
2023-04-18T07:02:58.383Z,34.20
2023-04-18T07:04:52.002Z,34.70
2023-04-18T07:06:44.976Z,36.50
2023-04-18T07:08:38.268Z,33.70
2023-04-18T07:10:31.199Z,33.60
2023-04-18T07:12:24.546Z,54.20
2023-04-18T07:14:19.753Z,49.80
2023-04-18T07:16:12.792Z,60.50
2023-04-18T07:18:06.040Z,43.40
2023-04-18T07:19:59.611Z,35.00
2023-04-18T07:21:52.484Z,35.70
2023-04-18T07:23:45.419Z,35.70
2023-04-18T07:25:39.081Z,37.40
2023-04-18T07:27:34.796Z,34.20
2023-04-18T07:29:28.268Z,36.50
2023-04-18T07:31:21.541Z,34.90
2023-04-18T07:33:14.722Z,33.20
2023-04-18T07:35:10.680Z,33.50
2023-04-18T07:37:03.828Z,39.30
2023-04-18T07:38:57.998Z,45.60
2023-04-18T07:41:00.365Z,37.10
2023-04-18T07:42:53.638Z,34.90
2023-04-18T07:44:47.299Z,35.20
2023-04-18T07:46:41.442Z,34.80
2023-04-18T07:48:35.035Z,34.30
2023-04-18T07:50:28.083Z,37.30
2023-04-18T07:52:21.661Z,35.80
2023-04-18T07:54:14.593Z,51.80
2023-04-18T07:56:07.561Z,44.50
2023-04-18T07:58:00.794Z,50.80
2023-04-18T07:59:54.159Z,54.00
2023-04-18T08:01:47.123Z,46.20
2023-04-18T08:03:40.248Z,41.70
2023-04-18T08:05:33.562Z,41.80
2023-04-18T08:07:28.167Z,42.00
2023-04-18T08:09:28.590Z,37.70
2023-04-18T08:11:21.800Z,40.20
2023-04-18T08:13:15.028Z,53.10
2023-04-18T08:15:09.085Z,51.10
2023-04-18T08:17:02.704Z,36.80
2023-04-18T08:18:56.242Z,49.40
2023-04-18T08:20:53.136Z,62.90
2023-04-18T08:23:05.200Z,71.30
2023-04-18T08:25:05.367Z,55.00
2023-04-18T08:26:58.858Z,41.30
2023-04-18T08:28:52.189Z,36.00
2023-04-18T08:30:48.922Z,37.60
2023-04-18T08:32:41.918Z,30.30
2023-04-18T08:34:37.088Z,30.60
2023-04-18T08:36:30.042Z,26.80
2023-04-18T08:38:23.103Z,34.30
2023-04-18T08:40:17.079Z,32.40
2023-04-18T08:42:11.540Z,36.10
2023-04-18T08:44:06.406Z,39.10
2023-04-18T08:46:00.671Z,30.80
2023-04-18T08:47:53.845Z,34.80
2023-04-18T08:49:47.125Z,32.00
2023-04-18T08:51:40.276Z,29.10
2023-04-18T08:53:33.873Z,30.00
2023-04-18T08:55:27.197Z,23.90
2023-04-18T08:57:30.291Z,27.40
2023-04-18T08:59:43.795Z,24.30
2023-04-18T09:01:56.807Z,26.70
2023-04-18T09:03:51.351Z,24.50
2023-04-18T09:06:04.258Z,26.20
2023-04-18T09:07:57.402Z,33.30
2023-04-18T09:09:53.389Z,27.00
2023-04-18T09:11:46.351Z,22.10
2023-04-18T09:13:39.948Z,24.60
2023-04-18T09:15:33.072Z,25.90
2023-04-18T09:17:43.876Z,26.50
2023-04-18T09:19:36.985Z,23.80
2023-04-18T09:21:29.833Z,22.90
2023-04-18T09:23:24.736Z,24.20
2023-04-18T09:25:39.809Z,26.00
2023-04-18T09:27:35.206Z,26.90
2023-04-18T09:29:47.285Z,25.80
2023-04-18T09:32:01.540Z,25.80
2023-04-18T09:33:56.923Z,29.20
2023-04-18T09:35:50.013Z,25.10
2023-04-18T09:37:51.453Z,35.00
2023-04-18T09:39:44.930Z,31.70
2023-04-18T09:41:37.861Z,30.70
2023-04-18T09:43:30.704Z,36.40
2023-04-18T09:45:24.895Z,32.60
2023-04-18T09:47:17.728Z,32.00
2023-04-18T09:49:11.496Z,34.10
2023-04-18T09:51:08.029Z,34.70
2023-04-18T09:53:01.796Z,27.50
2023-04-18T09:55:00.008Z,28.50
2023-04-18T09:58:49.060Z,27.90
2023-04-18T10:00:42.742Z,25.10
2023-04-18T10:03:03.056Z,27.10
2023-04-18T10:04:56.242Z,29.10
2023-04-18T10:06:49.399Z,25.70
2023-04-18T10:08:44.703Z,27.30
2023-04-18T10:10:38.938Z,28.50
2023-04-18T10:12:33.567Z,31.90
2023-04-18T10:14:28.029Z,27.80
2023-04-18T10:16:21.919Z,26.20
2023-04-18T10:18:16.729Z,27.60
2023-04-18T10:20:16.620Z,25.30
2023-04-18T10:22:10.042Z,30.10
2023-04-18T10:24:03.561Z,26.50
2023-04-18T10:25:56.897Z,25.60
2023-04-18T10:27:49.648Z,28.70
2023-04-18T10:29:54.674Z,27.10
2023-04-18T10:31:48.110Z,28.90
2023-04-18T10:35:59.021Z,26.20
2023-04-18T10:37:52.576Z,26.60
2023-04-18T10:39:58.509Z,28.00
2023-04-18T10:41:51.874Z,26.50
2023-04-18T10:44:08.025Z,28.40
2023-04-18T10:46:23.932Z,34.60
2023-04-18T10:48:26.133Z,31.80
2023-04-18T10:50:22.258Z,29.20
2023-04-18T10:52:15.822Z,28.00
2023-04-18T10:54:13.473Z,31.10
2023-04-18T10:56:10.396Z,26.30
2023-04-18T10:58:03.674Z,27.10
2023-04-18T10:59:57.135Z,24.30
2023-04-18T11:01:55.753Z,31.40
2023-04-18T11:03:48.706Z,27.00
2023-04-18T11:05:41.955Z,28.00
2023-04-18T11:07:46.613Z,28.60
2023-04-18T11:09:39.492Z,29.00
2023-04-18T11:11:32.335Z,25.50
2023-04-18T11:13:25.493Z,28.40
2023-04-18T11:15:22.397Z,24.30
2023-04-18T11:17:20.218Z,27.30
2023-04-18T11:19:21.450Z,27.50
2023-04-18T11:21:14.384Z,24.60
2023-04-18T11:23:17.472Z,29.00
2023-04-18T11:25:11.133Z,23.90
2023-04-18T11:27:04.700Z,23.90
2023-04-18T11:28:58.566Z,23.90
2023-04-18T11:30:51.375Z,25.50
2023-04-18T11:32:44.487Z,24.40
2023-04-18T11:34:37.417Z,24.70
2023-04-18T11:36:35.190Z,26.00
2023-04-18T11:38:30.853Z,25.30
2023-04-18T11:40:23.940Z,26.00
2023-04-18T11:42:16.985Z,26.80
2023-04-18T11:44:09.861Z,24.10
2023-04-18T11:46:02.819Z,27.50
2023-04-18T11:47:58.357Z,23.90
2023-04-18T11:49:58.565Z,28.40
2023-04-18T11:51:51.454Z,26.70
2023-04-18T11:53:44.732Z,28.00
2023-04-18T11:55:37.863Z,27.30
2023-04-18T11:57:32.252Z,25.50
2023-04-18T11:59:25.087Z,27.80
2023-04-18T12:01:25.712Z,23.40
2023-04-18T12:03:22.746Z,28.70
2023-04-18T12:05:37.132Z,28.00
2023-04-18T12:07:38.554Z,27.70
2023-04-18T12:09:31.404Z,26.60
2023-04-18T12:11:24.250Z,24.90
2023-04-18T12:13:17.939Z,31.20
2023-04-18T12:15:16.354Z,26.70
2023-04-18T12:17:09.237Z,26.90
2023-04-18T12:19:02.194Z,24.30
2023-04-18T12:20:55.055Z,26.70
2023-04-18T12:22:49.874Z,26.10
2023-04-18T12:24:43.612Z,25.90
2023-04-18T12:26:45.857Z,24.70
2023-04-18T12:28:38.706Z,27.50
2023-04-18T12:30:37.348Z,26.10
2023-04-18T12:32:30.872Z,25.20
2023-04-18T12:34:23.898Z,25.60
2023-04-18T12:36:16.840Z,24.70
2023-04-18T12:38:09.684Z,24.90
2023-04-18T12:40:02.600Z,26.60
2023-04-18T12:41:55.490Z,25.60
2023-04-18T12:43:48.331Z,27.20
2023-04-18T12:45:41.290Z,22.40
2023-04-18T12:47:35.677Z,26.60
2023-04-18T12:49:28.604Z,22.90
2023-04-18T12:51:22.078Z,24.60
2023-04-18T12:53:15.007Z,24.40
2023-04-18T12:55:08.988Z,27.90
2023-04-18T12:57:01.840Z,22.60
2023-04-18T12:58:54.788Z,23.70
2023-04-18T13:00:47.658Z,24.70
2023-04-18T13:02:43.825Z,22.60
2023-04-18T13:04:37.181Z,23.20
2023-04-18T13:06:30.989Z,27.50
2023-04-18T13:08:23.817Z,20.30
2023-04-18T13:10:19.423Z,21.30
2023-04-18T13:12:12.807Z,21.10
2023-04-18T13:14:05.744Z,22.10
2023-04-18T13:15:58.777Z,22.00
2023-04-18T13:17:51.756Z,20.70
2023-04-18T13:19:44.693Z,24.50
2023-04-18T13:21:38.384Z,20.30
2023-04-18T13:23:31.820Z,21.70
2023-04-18T13:25:26.603Z,20.30
2023-04-18T13:27:20.908Z,22.60
2023-04-18T13:29:14.885Z,21.30
2023-04-18T13:31:09.087Z,19.90
2023-04-18T13:33:03.172Z,20.00
2023-04-18T13:34:57.177Z,20.50
2023-04-18T13:36:50.434Z,18.60
2023-04-18T13:38:45.014Z,21.70
2023-04-18T13:40:39.107Z,20.70
2023-04-18T13:42:38.787Z,22.00
2023-04-18T13:44:32.830Z,18.80
2023-04-18T13:46:30.184Z,20.70
2023-04-18T13:48:24.461Z,21.40
2023-04-18T13:50:19.866Z,19.20
2023-04-18T13:52:14.313Z,17.70
2023-04-18T13:54:09.081Z,18.00
2023-04-18T13:56:04.358Z,19.70
2023-04-18T13:57:58.495Z,18.90
2023-04-18T13:59:52.653Z,20.50
2023-04-18T14:01:46.894Z,18.20
2023-04-18T14:03:43.738Z,17.10
2023-04-18T14:05:38.101Z,19.10
2023-04-18T14:07:31.657Z,21.80
2023-04-18T14:09:27.370Z,19.00
2023-04-18T14:11:21.824Z,19.40
2023-04-18T14:13:15.418Z,20.60
2023-04-18T14:15:09.906Z,20.80
2023-04-18T14:17:03.255Z,24.20
2023-04-18T14:18:57.509Z,26.30
2023-04-18T14:20:52.321Z,20.40
2023-04-18T14:22:46.904Z,21.20
2023-04-18T14:24:40.770Z,22.00
2023-04-18T14:26:34.142Z,50.10
2023-04-18T14:28:27.324Z,48.50
2023-04-18T14:30:20.534Z,33.30
2023-04-18T14:32:13.782Z,29.20
2023-04-18T14:34:08.454Z,27.20
2023-04-18T14:36:07.259Z,21.30
2023-04-18T14:38:02.323Z,39.50
2023-04-18T14:39:55.272Z,34.60
2023-04-18T14:41:53.997Z,28.30
2023-04-18T14:43:55.911Z,27.10
2023-04-18T14:46:03.002Z,27.00
2023-04-18T14:48:10.199Z,28.20
2023-04-18T14:50:19.016Z,24.40
2023-04-18T14:52:20.547Z,25.00
2023-04-18T14:54:25.857Z,23.10
2023-04-18T14:56:33.164Z,22.80
2023-04-18T14:58:39.595Z,21.20
2023-04-18T15:00:49.350Z,19.80
2023-04-18T15:02:52.203Z,22.00
2023-04-18T15:05:00.966Z,19.60
2023-04-18T15:07:09.087Z,36.60
2023-04-18T15:09:18.147Z,30.60
2023-04-18T15:11:15.974Z,21.00
2023-04-18T15:13:09.737Z,17.90
2023-04-18T15:15:02.694Z,16.40
2023-04-18T15:16:56.199Z,16.00
2023-04-18T15:18:49.196Z,17.10
2023-04-18T15:20:42.042Z,15.40
2023-04-18T15:22:36.321Z,17.70
2023-04-18T15:24:29.476Z,17.00
2023-04-18T15:26:22.298Z,17.70
2023-04-18T15:28:16.289Z,19.90
2023-04-18T15:30:12.133Z,18.30
2023-04-18T15:32:05.690Z,18.30
2023-04-18T15:33:58.717Z,18.20
2023-04-18T15:35:52.442Z,19.10
2023-04-18T15:37:48.569Z,18.10
2023-04-18T15:39:47.613Z,21.30
2023-04-18T15:41:42.185Z,17.70
2023-04-18T15:43:35.244Z,18.60
2023-04-18T15:45:28.190Z,19.20
2023-04-18T15:47:21.238Z,20.60
2023-04-18T15:49:14.390Z,18.20
2023-04-18T15:51:07.752Z,20.20
2023-04-18T15:53:00.806Z,21.40
2023-04-18T15:54:54.051Z,21.20
2023-04-18T15:56:46.902Z,24.20
2023-04-18T15:58:39.739Z,24.10
2023-04-18T16:00:32.895Z,21.30
2023-04-18T16:02:26.780Z,22.10
2023-04-18T16:04:19.887Z,22.70
2023-04-18T16:06:14.614Z,22.90
2023-04-18T16:08:09.002Z,23.40
2023-04-18T16:10:05.206Z,20.80
2023-04-18T16:11:58.033Z,19.70
2023-04-18T16:13:50.977Z,20.10
2023-04-18T16:15:43.883Z,19.80
2023-04-18T16:17:37.761Z,21.10
2023-04-18T16:19:31.291Z,21.80
2023-04-18T16:21:24.131Z,22.10
2023-04-18T16:23:17.079Z,19.60
2023-04-18T16:25:10.073Z,19.70
2023-04-18T16:27:02.903Z,20.10
2023-04-18T16:28:57.123Z,24.10
2023-04-18T16:30:50.024Z,25.60
2023-04-18T16:32:43.585Z,39.00
2023-04-18T16:34:37.016Z,26.60
2023-04-18T16:36:34.267Z,32.50
2023-04-18T16:38:27.536Z,27.80
2023-04-18T16:40:20.779Z,23.00
2023-04-18T16:42:15.461Z,29.20
2023-04-18T16:44:09.132Z,75.60
2023-04-18T16:46:02.803Z,63.30
2023-04-18T16:47:55.673Z,43.30
2023-04-18T16:49:48.798Z,46.80
2023-04-18T16:51:41.748Z,27.30
2023-04-18T16:53:40.346Z,23.50
2023-04-18T16:55:37.035Z,25.30
2023-04-18T16:57:29.997Z,22.00
2023-04-18T16:59:22.862Z,23.10
2023-04-18T17:01:16.199Z,28.10
2023-04-18T17:03:10.480Z,32.20
2023-04-18T17:05:03.885Z,25.50
2023-04-18T17:06:57.110Z,29.60
2023-04-18T17:08:50.361Z,26.40
2023-04-18T17:10:50.238Z,24.10
2023-04-18T17:12:49.310Z,23.90
2023-04-18T17:14:42.088Z,23.90
2023-04-18T17:16:38.047Z,29.80
2023-04-18T17:18:36.917Z,28.30
2023-04-18T17:20:39.872Z,26.50
2023-04-18T17:22:37.673Z,26.00
2023-04-18T17:24:30.709Z,28.00
2023-04-18T17:26:25.802Z,30.00
2023-04-18T17:28:19.041Z,35.20
2023-04-18T17:30:12.326Z,35.20
2023-04-18T17:32:05.820Z,38.90
2023-04-18T17:33:59.661Z,30.70
2023-04-18T17:35:52.698Z,31.00
2023-04-18T17:37:46.945Z,29.80
2023-04-18T17:39:40.742Z,33.20
2023-04-18T17:41:38.398Z,33.80
2023-04-18T17:43:31.360Z,37.90
2023-04-18T17:45:25.759Z,26.50
2023-04-18T17:47:18.606Z,25.10
2023-04-18T17:49:12.410Z,22.30
2023-04-18T17:51:06.213Z,19.90
2023-04-18T17:52:59.468Z,19.80
2023-04-18T17:54:52.432Z,23.10
2023-04-18T17:56:45.783Z,26.30
2023-04-18T17:58:39.951Z,26.00
2023-04-18T18:00:32.802Z,32.40
2023-04-18T18:02:26.015Z,33.10
2023-04-18T18:04:20.096Z,28.60
2023-04-18T18:06:14.409Z,44.20
2023-04-18T18:08:07.523Z,27.20
2023-04-18T18:10:01.336Z,21.60
2023-04-18T18:11:55.899Z,22.10
2023-04-18T18:13:51.837Z,24.20
2023-04-18T18:15:45.192Z,24.90
2023-04-18T18:17:52.623Z,27.90
2023-04-18T18:19:45.836Z,26.70
2023-04-18T18:21:39.088Z,24.70
2023-04-18T18:23:37.740Z,26.50
2023-04-18T18:25:31.240Z,22.80
2023-04-18T18:27:24.182Z,29.90
2023-04-18T18:29:17.201Z,23.80
2023-04-18T18:31:10.145Z,28.80
2023-04-18T18:33:04.048Z,28.60
2023-04-18T18:34:56.994Z,24.60
2023-04-18T18:36:50.664Z,22.30
2023-04-18T18:38:43.535Z,36.20
2023-04-18T18:40:39.436Z,39.30
2023-04-18T18:42:39.749Z,49.70
2023-04-18T18:44:38.025Z,51.40
2023-04-18T18:46:31.320Z,35.40
2023-04-18T18:48:24.850Z,30.20
2023-04-18T18:50:18.222Z,34.40
2023-04-18T18:52:11.366Z,32.40
2023-04-18T18:54:04.603Z,28.90
2023-04-18T18:55:57.855Z,25.60
2023-04-18T18:57:51.315Z,28.50
2023-04-18T18:59:44.468Z,25.40
2023-04-18T19:01:37.693Z,26.40
2023-04-18T19:03:31.268Z,25.50
2023-04-18T19:05:24.539Z,25.50
2023-04-18T19:07:17.697Z,27.40
2023-04-18T19:09:10.856Z,24.40
2023-04-18T19:11:04.526Z,24.80
2023-04-18T19:12:57.770Z,39.60
2023-04-18T19:14:50.617Z,31.80
2023-04-18T19:16:43.492Z,29.00
2023-04-18T19:18:37.024Z,37.70
2023-04-18T19:20:29.973Z,28.60
2023-04-18T19:22:22.819Z,28.80
2023-04-18T19:24:15.872Z,26.50
2023-04-18T19:26:09.469Z,33.70
2023-04-18T19:28:02.493Z,31.60
2023-04-18T19:29:55.328Z,35.70
2023-04-18T19:31:48.214Z,34.10
2023-04-18T19:33:41.055Z,38.30
2023-04-18T19:35:35.319Z,40.30
2023-04-18T19:37:30.806Z,36.80
2023-04-18T19:39:23.759Z,41.10
2023-04-18T19:41:16.752Z,38.20
2023-04-18T19:43:09.679Z,39.90
2023-04-18T19:45:03.236Z,28.60
2023-04-18T19:46:56.370Z,32.00
2023-04-18T19:48:49.354Z,27.00
2023-04-18T19:50:42.464Z,33.40
2023-04-18T19:52:35.634Z,35.40
2023-04-18T19:54:28.501Z,25.30
2023-04-18T19:56:21.788Z,33.90
2023-04-18T19:58:45.302Z,34.10
2023-04-18T20:00:38.438Z,39.70
2023-04-18T20:02:31.386Z,39.00
2023-04-18T20:04:26.140Z,42.50
2023-04-18T20:06:19.131Z,42.90
2023-04-18T20:08:11.981Z,34.20
2023-04-18T20:10:05.942Z,28.80
2023-04-18T20:12:00.667Z,33.70
2023-04-18T20:13:55.835Z,29.60
2023-04-18T20:15:49.371Z,30.60
2023-04-18T20:17:42.789Z,26.90
2023-04-18T20:19:36.443Z,32.20
2023-04-18T20:21:29.468Z,27.80
2023-04-18T20:23:22.314Z,28.70
2023-04-18T20:25:15.372Z,25.80
2023-04-18T20:27:08.414Z,30.60
2023-04-18T20:29:02.186Z,30.70
2023-04-18T20:30:55.988Z,28.40
2023-04-18T20:32:49.009Z,29.10
2023-04-18T20:34:41.956Z,26.90
2023-04-18T20:36:35.619Z,32.70
2023-04-18T20:38:29.815Z,26.40
2023-04-18T20:40:22.943Z,23.50
2023-04-18T20:42:15.916Z,24.00
2023-04-18T20:44:10.117Z,24.30
2023-04-18T20:46:03.065Z,26.90
2023-04-18T20:47:56.849Z,22.50
2023-04-18T20:49:49.834Z,22.80
2023-04-18T20:51:42.685Z,21.50
2023-04-18T20:53:35.731Z,23.60
2023-04-18T20:55:28.790Z,23.10
2023-04-18T20:57:21.843Z,22.50
2023-04-18T20:59:14.733Z,22.20
2023-04-18T21:01:07.634Z,21.50
2023-04-18T21:03:00.943Z,22.70
2023-04-18T21:04:54.240Z,21.00
2023-04-18T21:06:47.268Z,23.90
2023-04-18T21:08:40.142Z,20.60
2023-04-18T21:10:33.084Z,20.40
2023-04-18T21:12:27.461Z,18.30
2023-04-18T21:14:20.517Z,17.80
2023-04-18T21:16:13.458Z,21.20
2023-04-18T21:18:06.476Z,20.60
2023-04-18T21:20:06.089Z,19.50
2023-04-18T21:22:13.650Z,19.20
2023-04-18T21:24:08.342Z,18.90
2023-04-18T21:26:01.142Z,18.00
2023-04-18T21:27:54.297Z,22.70
2023-04-18T21:29:48.199Z,21.70
2023-04-18T21:31:41.082Z,19.60
2023-04-18T21:33:34.061Z,18.30
2023-04-18T21:35:26.908Z,18.90
2023-04-18T21:37:19.754Z,18.10
2023-04-18T21:39:12.603Z,16.90
2023-04-18T21:41:09.141Z,19.00
2023-04-18T21:43:04.842Z,19.80
2023-04-18T21:44:59.024Z,18.20
2023-04-18T21:46:51.844Z,19.50
2023-04-18T21:48:47.248Z,17.90
2023-04-18T21:50:43.197Z,15.90
2023-04-18T21:52:37.267Z,16.40
2023-04-18T21:54:30.117Z,16.50
2023-04-18T21:56:23.264Z,15.20
2023-04-18T21:58:17.343Z,15.50
2023-04-18T22:00:11.524Z,15.80
2023-04-18T22:02:06.496Z,15.20
2023-04-18T22:03:59.828Z,13.50
2023-04-18T22:05:53.713Z,17.20
2023-04-18T22:07:57.858Z,16.00
2023-04-18T22:10:00.550Z,14.30
2023-04-18T22:11:57.168Z,17.60
2023-04-18T22:13:54.310Z,17.60
2023-04-18T22:15:47.253Z,18.20
2023-04-18T22:17:41.884Z,16.80
2023-04-18T22:19:36.797Z,18.80
2023-04-18T22:21:30.054Z,22.60
2023-04-18T22:23:23.547Z,21.10
2023-04-18T22:25:17.530Z,20.40
2023-04-18T22:27:10.385Z,18.90
2023-04-18T22:29:03.322Z,18.80
2023-04-18T22:30:56.297Z,19.10
2023-04-18T22:32:49.358Z,18.20
2023-04-18T22:34:42.470Z,17.50
2023-04-18T22:36:35.421Z,17.90
2023-04-18T22:38:28.370Z,15.30
2023-04-18T22:40:21.720Z,17.30
2023-04-18T22:42:14.573Z,15.00
2023-04-18T22:44:07.420Z,14.00
2023-04-18T22:46:00.808Z,12.20
2023-04-18T22:47:53.813Z,15.90
2023-04-18T22:49:47.391Z,15.80
2023-04-18T22:51:40.233Z,13.30
2023-04-18T22:53:33.085Z,12.40
2023-04-18T22:55:25.928Z,13.00
2023-04-18T22:57:18.773Z,12.50
2023-04-18T22:59:11.614Z,14.40
2023-04-18T23:01:04.601Z,12.40
2023-04-18T23:02:57.789Z,13.60
2023-04-18T23:04:51.143Z,11.90
2023-04-18T23:06:44.548Z,12.00
2023-04-18T23:08:37.381Z,11.20
2023-04-18T23:10:30.435Z,13.20
2023-04-18T23:12:23.382Z,10.30
2023-04-18T23:14:16.359Z,11.00
2023-04-18T23:16:09.433Z,11.20
2023-04-18T23:18:02.396Z,11.90
2023-04-18T23:19:55.488Z,11.80
2023-04-18T23:21:49.715Z,13.30
2023-04-18T23:23:42.922Z,11.20
2023-04-18T23:25:35.868Z,13.50
2023-04-18T23:27:28.709Z,13.80
2023-04-18T23:29:22.228Z,15.30
2023-04-18T23:31:15.761Z,14.20
2023-04-18T23:33:09.055Z,13.10
2023-04-18T23:35:04.414Z,13.80
2023-04-18T23:36:57.343Z,12.10
2023-04-18T23:38:50.185Z,11.90
2023-04-18T23:40:43.138Z,13.70
2023-04-18T23:42:36.396Z,11.90
2023-04-18T23:44:29.238Z,10.40
2023-04-18T23:46:22.141Z,10.90
2023-04-18T23:48:15.132Z,9.90
2023-04-18T23:50:08.650Z,12.00
2023-04-18T23:52:01.549Z,11.80
2023-04-18T23:53:54.493Z,11.40
2023-04-18T23:55:50.102Z,9.70
2023-04-18T23:57:44.481Z,9.70
2023-04-18T23:59:37.426Z,11.50
